createdAt,value
2024-04-25T00:07:10.876Z,14.30
2024-04-25T00:09:44.736Z,14.23
2024-04-25T00:12:34.088Z,14.21
2024-04-25T00:15:02.632Z,14.17
2024-04-25T00:17:35.245Z,14.12
2024-04-25T00:20:26.129Z,14.06
2024-04-25T00:23:03.781Z,14.03
2024-04-25T00:25:53.180Z,13.96
2024-04-25T00:28:35.726Z,13.85
2024-04-25T00:31:14.772Z,13.75
2024-04-25T00:33:52.868Z,13.67
2024-04-25T00:36:25.713Z,13.59
2024-04-25T00:39:36.845Z,13.52
2024-04-25T00:42:29.800Z,13.46
2024-04-25T00:44:59.516Z,13.38
2024-04-25T00:47:37.225Z,13.33
2024-04-25T00:50:27.978Z,13.29
2024-04-25T00:52:56.243Z,13.25
2024-04-25T00:55:25.129Z,13.21
2024-04-25T00:57:52.976Z,13.20
2024-04-25T01:00:25.224Z,13.19
2024-04-25T01:03:16.296Z,13.16
2024-04-25T01:05:48.327Z,13.12
2024-04-25T01:08:17.505Z,13.07
2024-04-25T01:10:45.277Z,13.02
2024-04-25T01:13:14.565Z,12.98
2024-04-25T01:15:44.902Z,12.94
2024-04-25T01:18:17.322Z,12.92
2024-04-25T01:20:45.775Z,12.92
2024-04-25T01:23:15.061Z,12.90
2024-04-25T01:25:48.625Z,12.88
2024-04-25T01:28:21.865Z,12.86
2024-04-25T01:31:03.098Z,12.84
2024-04-25T01:33:34.406Z,12.82
2024-04-25T01:36:04.102Z,12.81
2024-04-25T01:38:35.327Z,12.79
2024-04-25T01:41:06.662Z,12.76
2024-04-25T01:43:39.085Z,12.73
2024-04-25T01:46:08.827Z,12.72
2024-04-25T01:48:38.024Z,12.75
2024-04-25T01:51:07.970Z,12.73
2024-04-25T01:53:37.358Z,12.70
2024-04-25T01:56:05.662Z,12.69
2024-04-25T01:58:33.832Z,12.67
2024-04-25T02:01:05.121Z,12.63
2024-04-25T02:03:33.741Z,12.57
2024-04-25T02:06:04.089Z,12.50
2024-04-25T02:08:34.166Z,12.45
2024-04-25T02:11:09.192Z,12.42
2024-04-25T02:19:51.443Z,12.40
2024-04-25T02:29:12.654Z,12.36
2024-04-25T02:32:01.124Z,12.38
2024-04-25T02:34:31.357Z,12.36
2024-04-25T02:37:01.778Z,12.35
2024-04-25T02:39:30.631Z,12.35
2024-04-25T02:42:20.228Z,12.38
2024-04-25T02:44:51.259Z,12.40
2024-04-25T02:47:20.260Z,12.43
2024-04-25T02:49:49.756Z,12.41
2024-04-25T02:52:17.919Z,12.37
2024-04-25T02:54:46.677Z,12.35
2024-04-25T02:57:20.071Z,12.35
2024-04-25T02:59:48.955Z,12.36
2024-04-25T03:02:16.781Z,12.34
2024-04-25T03:04:54.040Z,12.32
2024-04-25T03:07:21.838Z,12.31
2024-04-25T03:09:50.680Z,12.31
2024-04-25T03:12:19.420Z,12.29
2024-04-25T03:14:48.248Z,12.27
2024-04-25T03:17:17.225Z,12.23
2024-04-25T03:19:46.028Z,12.18
2024-04-25T03:28:22.606Z,12.23
2024-04-25T03:30:53.568Z,12.23
2024-04-25T03:33:21.176Z,12.28
2024-04-25T03:35:48.994Z,12.30
2024-04-25T03:41:20.405Z,12.05
2024-04-25T03:51:03.615Z,12.47
2024-04-25T03:53:37.357Z,12.52
2024-04-25T03:56:08.033Z,12.59
2024-04-25T03:58:42.319Z,12.65
2024-04-25T04:01:17.250Z,12.71
2024-04-25T04:03:53.267Z,12.76
2024-04-25T04:06:23.847Z,12.86
2024-04-25T04:08:57.284Z,12.94
2024-04-25T04:11:28.667Z,13.03
2024-04-25T04:13:56.351Z,13.13
2024-04-25T04:16:35.333Z,13.21
2024-04-25T04:19:05.094Z,13.29
2024-04-25T04:21:32.731Z,13.39
2024-04-25T04:24:02.241Z,13.51
2024-04-25T04:26:30.301Z,13.61
2024-04-25T04:29:04.441Z,13.70
2024-04-25T04:31:38.637Z,13.80
2024-04-25T04:34:08.873Z,13.87
2024-04-25T04:36:36.416Z,13.96
2024-04-25T04:39:03.872Z,14.06
2024-04-25T04:41:30.982Z,14.18
2024-04-25T04:44:00.503Z,14.29
2024-04-25T04:46:29.432Z,14.40
2024-04-25T04:48:58.605Z,14.52
2024-04-25T04:51:28.734Z,14.61
2024-04-25T04:53:58.605Z,14.70
2024-04-25T04:56:30.022Z,14.80
2024-04-25T04:58:58.751Z,14.89
2024-04-25T05:01:30.762Z,14.98
2024-04-25T05:04:00.604Z,15.06
2024-04-25T05:06:31.706Z,15.16
2024-04-25T05:09:01.306Z,15.28
2024-04-25T05:11:32.521Z,15.39
2024-04-25T05:14:03.888Z,15.48
2024-04-25T05:16:33.811Z,15.55
2024-04-25T05:19:06.652Z,15.63
2024-04-25T05:21:34.198Z,15.72
2024-04-25T05:24:02.318Z,15.83
2024-04-25T05:26:32.239Z,15.93
2024-04-25T05:29:00.866Z,15.99
2024-04-25T05:31:29.788Z,16.02
2024-04-25T05:34:00.047Z,16.11
2024-04-25T05:36:56.209Z,16.22
2024-04-25T05:39:32.702Z,16.30
2024-04-25T05:42:06.555Z,16.35
2024-04-25T05:44:34.307Z,16.42
2024-04-25T05:47:09.519Z,16.51
2024-04-25T05:49:42.455Z,16.61
2024-04-25T05:52:12.328Z,16.65
2024-04-25T05:54:39.458Z,16.71
2024-04-25T05:57:06.441Z,16.75
2024-04-25T05:59:33.455Z,16.81
2024-04-25T06:02:00.615Z,16.88
2024-04-25T06:04:27.920Z,16.96
2024-04-25T06:06:55.033Z,17.06
2024-04-25T06:09:22.381Z,17.15
2024-04-25T06:11:52.964Z,17.23
2024-04-25T06:14:23.392Z,17.30
2024-04-25T06:20:28.479Z,17.42
2024-04-25T06:22:55.835Z,17.42
2024-04-25T06:25:22.921Z,17.45
2024-04-25T06:27:50.042Z,17.47
2024-04-25T06:30:17.144Z,17.54
2024-04-25T06:32:44.473Z,17.62
2024-04-25T06:35:11.636Z,17.61
2024-04-25T06:37:38.737Z,17.52
2024-04-25T06:40:06.194Z,17.44
2024-04-25T06:42:34.123Z,17.32
2024-04-25T06:45:01.293Z,17.19
2024-04-25T06:47:28.354Z,17.16
2024-04-25T06:49:55.668Z,17.18
2024-04-25T06:52:22.644Z,17.25
2024-04-25T06:54:51.762Z,17.32
2024-04-25T06:57:18.752Z,17.27
2024-04-25T06:59:47.568Z,17.23
2024-04-25T07:02:17.460Z,17.15
2024-04-25T07:04:47.832Z,17.15
2024-04-25T07:10:52.346Z,17.36
2024-04-25T07:13:20.267Z,17.49
2024-04-25T07:18:48.557Z,17.77
2024-04-25T07:21:15.642Z,17.79
2024-04-25T07:23:42.808Z,17.76
2024-04-25T07:26:10.117Z,17.74
2024-04-25T07:28:37.501Z,17.77
2024-04-25T07:31:04.972Z,17.81
2024-04-25T07:33:32.477Z,17.90
2024-04-25T07:35:59.853Z,18.00
2024-04-25T07:38:27.159Z,18.09
2024-04-25T07:40:54.673Z,18.15
2024-04-25T07:43:26.902Z,18.17
2024-04-25T07:45:59.024Z,18.17
2024-04-25T07:48:27.524Z,18.14
2024-04-25T07:50:57.446Z,18.14
2024-04-25T07:53:35.541Z,18.13
2024-04-25T07:56:06.722Z,18.13
2024-04-25T07:58:39.613Z,18.17
2024-04-25T08:01:12.077Z,18.25
2024-04-25T08:03:43.896Z,18.34
2024-04-25T08:06:13.225Z,18.36
2024-04-25T08:08:45.859Z,18.41
2024-04-25T08:11:17.781Z,18.50
2024-04-25T08:13:57.460Z,18.57
2024-04-25T08:16:29.029Z,18.52
2024-04-25T08:19:21.478Z,18.51
2024-04-25T08:21:54.535Z,18.59
2024-04-25T08:24:24.852Z,18.67
2024-04-25T08:26:53.532Z,18.76
2024-04-25T08:29:31.840Z,18.83
2024-04-25T08:32:08.683Z,18.91
2024-04-25T08:34:39.503Z,19.02
2024-04-25T08:37:10.351Z,19.18
2024-04-25T08:39:40.736Z,19.25
2024-04-25T08:42:14.168Z,19.32
2024-04-25T08:44:45.173Z,19.37
2024-04-25T08:49:43.899Z,19.44
2024-04-25T08:52:46.079Z,19.43
2024-04-25T08:55:16.564Z,19.42
2024-04-25T08:57:52.804Z,19.42
2024-04-25T09:00:26.390Z,19.47
2024-04-25T09:02:54.541Z,19.52
2024-04-25T09:05:29.626Z,19.58
2024-04-25T09:08:15.753Z,19.57
2024-04-25T09:10:48.130Z,19.57
2024-04-25T09:13:17.309Z,19.66
2024-04-25T09:15:53.427Z,19.74
2024-04-25T09:18:29.070Z,19.77
2024-04-25T09:21:02.292Z,19.78
2024-04-25T09:23:42.215Z,19.83
2024-04-25T09:26:13.644Z,19.89
2024-04-25T09:29:04.310Z,19.97
2024-04-25T09:31:34.403Z,20.02
2024-04-25T09:34:05.793Z,20.05
2024-04-25T09:36:35.759Z,20.13
2024-04-25T09:39:05.057Z,20.17
2024-04-25T09:41:44.683Z,20.16
2024-04-25T09:44:11.946Z,20.18
2024-04-25T09:46:40.841Z,20.22
2024-04-25T09:49:08.632Z,20.19
2024-04-25T09:51:49.629Z,20.20
2024-04-25T09:54:28.666Z,20.24
2024-04-25T09:57:00.040Z,20.28
2024-04-25T10:00:12.009Z,20.38
2024-04-25T10:02:49.134Z,20.49
2024-04-25T10:05:19.071Z,20.51
2024-04-25T10:07:49.399Z,20.54
2024-04-25T10:10:23.565Z,20.64
2024-04-25T10:12:56.805Z,20.75
2024-04-25T10:15:47.221Z,20.81
2024-04-25T10:18:17.087Z,20.92
2024-04-25T10:20:47.927Z,21.00
2024-04-25T10:23:16.956Z,21.04
2024-04-25T10:25:56.486Z,21.09
2024-04-25T10:28:33.982Z,21.16
2024-04-25T10:31:02.983Z,21.21
2024-04-25T10:33:33.080Z,21.28
2024-04-25T10:42:29.643Z,21.59
2024-04-25T10:45:03.792Z,21.61
2024-04-25T10:47:47.686Z,21.65
2024-04-25T10:50:18.594Z,21.77
2024-04-25T10:52:50.559Z,21.94
2024-04-25T10:55:31.316Z,22.09
2024-04-25T10:58:11.255Z,22.24
2024-04-25T11:00:49.345Z,22.34
2024-04-25T11:03:19.903Z,22.39
2024-04-25T11:05:54.070Z,22.42
2024-04-25T11:08:27.302Z,22.46
2024-04-25T11:11:00.729Z,22.50
2024-04-25T11:13:33.570Z,22.57
2024-04-25T11:16:04.197Z,22.61
2024-04-25T11:18:33.927Z,22.63
2024-04-25T11:21:05.443Z,22.64
2024-04-25T11:23:34.849Z,22.64
2024-04-25T11:26:08.886Z,22.65
2024-04-25T11:28:38.852Z,22.68
2024-04-25T11:31:13.409Z,22.73
2024-04-25T11:33:51.825Z,22.78
2024-04-25T11:36:26.878Z,22.85
2024-04-25T11:39:03.942Z,22.90
2024-04-25T11:42:00.180Z,22.95
2024-04-25T11:44:34.830Z,23.02
2024-04-25T11:47:16.190Z,23.02
2024-04-25T11:49:55.503Z,22.96
2024-04-25T11:52:30.711Z,22.91
2024-04-25T11:55:05.357Z,22.92
2024-04-25T11:57:55.070Z,22.96
2024-04-25T12:00:24.524Z,23.02
2024-04-25T12:02:54.736Z,23.10
2024-04-25T12:05:33.462Z,23.09
2024-04-25T12:08:08.514Z,23.03
2024-04-25T12:11:21.796Z,22.99
2024-04-25T12:13:51.019Z,22.90
2024-04-25T12:16:22.666Z,22.90
2024-04-25T12:18:58.964Z,22.92
2024-04-25T12:21:52.802Z,22.98
2024-04-25T12:24:22.620Z,23.15
2024-04-25T12:27:00.117Z,23.27
2024-04-25T12:29:32.050Z,23.33
2024-04-25T12:32:10.841Z,23.39
2024-04-25T12:34:38.840Z,23.45
2024-04-25T12:37:10.735Z,23.49
2024-04-25T12:39:52.205Z,23.53
2024-04-25T12:42:43.388Z,23.58
2024-04-25T12:45:13.648Z,23.62
2024-04-25T12:47:42.411Z,23.63
2024-04-25T12:50:18.275Z,23.63
2024-04-25T12:52:49.943Z,23.61
2024-04-25T12:55:22.218Z,23.57
2024-04-25T12:58:11.647Z,23.52
2024-04-25T13:01:21.641Z,23.49
2024-04-25T13:04:01.006Z,23.40
2024-04-25T13:06:33.063Z,23.36
2024-04-25T13:09:06.088Z,23.41
2024-04-25T13:11:57.106Z,23.46
2024-04-25T13:14:27.266Z,23.51
2024-04-25T13:21:02.701Z,23.63
2024-04-25T13:24:01.042Z,23.68
2024-04-25T13:26:51.250Z,23.74
2024-04-25T13:29:28.017Z,23.75
2024-04-25T13:32:03.587Z,23.73
2024-04-25T13:34:35.255Z,23.74
2024-04-25T13:37:04.094Z,23.73
2024-04-25T13:39:50.251Z,23.72
2024-04-25T13:42:27.006Z,23.64
2024-04-25T13:45:00.347Z,23.55
2024-04-25T13:47:31.392Z,23.56
2024-04-25T13:50:18.671Z,23.63
2024-04-25T13:52:52.301Z,23.76
2024-04-25T13:55:28.366Z,23.89
2024-04-25T13:58:03.261Z,24.03
2024-04-25T14:01:17.266Z,24.16
2024-04-25T14:03:48.426Z,24.28
2024-04-25T14:06:43.102Z,24.35
2024-04-25T14:09:11.459Z,24.45
2024-04-25T14:11:41.271Z,24.50
2024-04-25T14:14:10.693Z,24.55
2024-04-25T14:16:38.446Z,24.56
2024-04-25T14:19:08.642Z,24.53
2024-04-25T14:21:35.916Z,24.51
2024-04-25T14:24:03.566Z,24.37
2024-04-25T14:26:52.016Z,24.21
2024-04-25T14:29:21.581Z,24.09
2024-04-25T14:31:50.624Z,24.10
2024-04-25T14:34:26.594Z,24.08
2024-04-25T14:36:53.893Z,24.06
2024-04-25T14:39:24.435Z,24.03
2024-04-25T14:41:53.980Z,24.00
2024-04-25T14:44:22.658Z,24.02
2024-04-25T14:46:52.253Z,24.13
2024-04-25T14:49:21.279Z,24.18
2024-04-25T14:51:50.406Z,24.10
2024-04-25T14:54:17.579Z,24.04
2024-04-25T14:56:45.058Z,23.99
2024-04-25T14:59:12.152Z,23.97
2024-04-25T15:01:39.269Z,23.98
2024-04-25T15:04:06.347Z,23.97
2024-04-25T15:06:39.318Z,23.87
2024-04-25T15:09:06.544Z,23.75
2024-04-25T15:11:33.842Z,23.76
2024-04-25T15:14:01.080Z,23.84
2024-04-25T15:16:28.225Z,23.98
2024-04-25T15:18:55.408Z,24.16
2024-04-25T15:21:22.787Z,24.35
2024-04-25T15:23:50.089Z,24.45
2024-04-25T15:26:18.750Z,24.36
2024-04-25T15:28:46.280Z,24.17
2024-04-25T15:31:17.840Z,23.96
2024-04-25T15:33:45.664Z,23.83
2024-04-25T15:36:14.608Z,23.79
2024-04-25T15:38:42.030Z,23.87
2024-04-25T15:41:11.253Z,23.96
2024-04-25T15:43:38.827Z,23.98
2024-04-25T15:46:05.973Z,23.92
2024-04-25T15:48:33.795Z,23.78
2024-04-25T15:51:00.997Z,23.63
2024-04-25T15:53:29.049Z,23.52
2024-04-25T15:58:35.462Z,23.12
2024-04-25T16:01:05.204Z,23.23
2024-04-25T16:03:35.209Z,23.13
2024-04-25T16:06:07.048Z,23.04
2024-04-25T16:08:35.398Z,22.90
2024-04-25T16:11:02.890Z,22.75
2024-04-25T16:13:30.583Z,22.63
2024-04-25T16:15:58.486Z,22.52
2024-04-25T16:18:26.597Z,22.41
2024-04-25T16:20:54.653Z,22.31
2024-04-25T16:23:22.651Z,22.22
2024-04-25T16:25:50.303Z,22.13
2024-04-25T16:28:18.038Z,22.04
2024-04-25T16:30:45.630Z,21.97
2024-04-25T16:33:13.552Z,21.91
2024-04-25T16:35:43.247Z,21.83
2024-04-25T16:38:12.402Z,21.75
2024-04-25T16:40:40.158Z,21.68
2024-04-25T16:43:07.830Z,21.62
2024-04-25T16:45:35.521Z,21.56
2024-04-25T16:48:03.789Z,21.49
2024-04-25T16:50:32.987Z,21.42
2024-04-25T16:53:01.290Z,21.33
2024-04-25T16:55:30.297Z,21.23
2024-04-25T16:57:58.816Z,21.13
2024-04-25T17:00:27.511Z,21.01
2024-04-25T17:02:55.772Z,20.91
2024-04-25T17:05:23.798Z,20.81
2024-04-25T17:07:55.842Z,20.70
2024-04-25T17:10:25.533Z,20.60
2024-04-25T17:12:54.652Z,20.51
2024-04-25T17:15:23.058Z,20.41
2024-04-25T17:17:53.051Z,20.33
2024-04-25T17:20:21.237Z,20.26
2024-04-25T17:22:50.713Z,20.17
2024-04-25T17:25:18.964Z,20.08
2024-04-25T17:27:47.783Z,19.99
2024-04-25T17:30:16.842Z,19.90
2024-04-25T17:32:44.667Z,19.82
2024-04-25T17:35:13.900Z,19.76
2024-04-25T17:37:43.852Z,19.70
2024-04-25T17:40:14.793Z,19.64
2024-04-25T17:42:43.089Z,19.59
2024-04-25T17:45:12.601Z,19.54
2024-04-25T17:47:42.354Z,19.48
2024-04-25T17:50:11.876Z,19.40
2024-04-25T17:52:42.627Z,19.36
2024-04-25T17:55:12.426Z,19.32
2024-04-25T17:57:44.143Z,19.29
2024-04-25T18:00:12.849Z,19.26
2024-04-25T18:02:42.637Z,19.23
2024-04-25T18:05:14.249Z,19.18
2024-04-25T18:07:43.820Z,19.15
2024-04-25T18:16:49.128Z,19.09
2024-04-25T18:19:40.334Z,19.01
2024-04-25T18:22:24.495Z,18.98
2024-04-25T18:24:58.469Z,18.95
2024-04-25T18:27:30.923Z,18.92
2024-04-25T18:30:07.509Z,18.86
2024-04-25T18:33:09.301Z,18.81
2024-04-25T18:36:00.545Z,18.74
2024-04-25T18:38:56.736Z,18.71
2024-04-25T18:41:40.438Z,18.68
2024-04-25T18:44:41.600Z,18.68
2024-04-25T18:47:23.991Z,18.67
2024-04-25T18:50:26.535Z,18.65
2024-04-25T18:53:18.799Z,18.60
2024-04-25T18:55:52.766Z,18.57
2024-04-25T18:58:22.456Z,18.54
2024-04-25T19:00:57.802Z,18.52
2024-04-25T19:03:31.703Z,18.54
2024-04-25T19:06:09.500Z,18.53
2024-04-25T19:08:49.799Z,18.48
2024-04-25T19:12:23.571Z,18.47
2024-04-25T19:14:57.509Z,18.49
2024-04-25T19:17:39.027Z,18.51
2024-04-25T19:23:19.971Z,18.55
2024-04-25T19:26:13.287Z,18.54
2024-04-25T19:28:49.283Z,18.57
2024-04-25T19:32:07.356Z,18.56
2024-04-25T19:34:38.274Z,18.55
2024-04-25T19:37:14.343Z,18.54
2024-04-25T19:39:55.683Z,18.50
2024-04-25T19:42:30.018Z,18.43
2024-04-25T19:44:59.472Z,18.39
2024-04-25T19:47:35.860Z,18.36
2024-04-25T19:50:10.254Z,18.32
2024-04-25T19:52:42.937Z,18.27
2024-04-25T19:55:12.029Z,18.23
2024-04-25T19:57:43.494Z,18.20
2024-04-25T20:00:14.359Z,18.17
2024-04-25T20:02:43.473Z,18.13
2024-04-25T20:05:28.873Z,18.11
2024-04-25T20:07:57.558Z,18.09
2024-04-25T20:10:28.281Z,18.07
2024-04-25T20:12:56.817Z,18.06
2024-04-25T20:15:30.505Z,18.04
2024-04-25T20:18:18.338Z,18.03
2024-04-25T20:21:05.860Z,18.00
2024-04-25T20:23:42.892Z,17.98
2024-04-25T20:26:14.150Z,17.94
2024-04-25T20:28:44.586Z,17.90
2024-04-25T20:31:16.062Z,17.88
2024-04-25T20:33:51.045Z,17.87
2024-04-25T20:36:24.955Z,17.86
2024-04-25T20:38:55.204Z,17.86
2024-04-25T20:41:29.240Z,17.88
2024-04-25T20:43:57.664Z,17.88
2024-04-25T20:46:27.543Z,17.89
2024-04-25T20:48:57.527Z,17.90
2024-04-25T20:51:32.045Z,17.89
2024-04-25T20:54:01.922Z,17.86
2024-04-25T20:56:32.422Z,17.84
2024-04-25T20:59:03.514Z,17.82
2024-04-25T21:01:38.862Z,17.81
2024-04-25T21:04:08.167Z,17.81
2024-04-25T21:06:43.975Z,17.83
2024-04-25T21:09:13.838Z,17.84
2024-04-25T21:11:43.171Z,17.84
2024-04-25T21:14:12.538Z,17.82
2024-04-25T21:16:52.512Z,17.78
2024-04-25T21:19:24.862Z,17.73
2024-04-25T21:21:56.004Z,17.66
2024-04-25T21:24:24.757Z,17.56
2024-04-25T21:26:52.461Z,17.47
2024-04-25T21:29:22.452Z,17.39
2024-04-25T21:31:55.253Z,17.33
2024-04-25T21:34:24.818Z,17.29
2024-04-25T21:36:53.283Z,17.26
2024-04-25T21:39:22.754Z,17.22
2024-04-25T21:41:53.408Z,17.19
2024-04-25T21:44:22.609Z,17.19
2024-04-25T21:46:52.045Z,17.18
2024-04-25T21:49:20.378Z,17.17
2024-04-25T21:51:53.804Z,17.15
2024-04-25T21:54:26.382Z,17.15
2024-04-25T21:56:56.534Z,17.14
2024-04-25T21:59:27.331Z,17.14
2024-04-25T22:09:34.591Z,17.19
2024-04-25T22:12:04.626Z,17.14
2024-04-25T22:14:33.785Z,17.13
2024-04-25T22:17:03.285Z,17.11
2024-04-25T22:19:32.261Z,17.11
2024-04-25T22:22:02.404Z,17.10
2024-04-25T22:24:30.082Z,17.10
2024-04-25T22:27:04.912Z,17.09
2024-04-25T22:36:20.726Z,17.11
2024-04-25T22:38:51.061Z,17.02
2024-04-25T22:41:19.606Z,16.96
2024-04-25T22:44:25.876Z,16.96
2024-04-25T22:46:52.692Z,16.93
2024-04-25T22:49:20.003Z,16.93
2024-04-25T22:51:48.566Z,16.93
2024-04-25T22:54:17.006Z,16.91
2024-04-25T22:56:45.524Z,16.87
2024-04-25T22:59:12.798Z,16.84
2024-04-25T23:01:39.639Z,16.79
2024-04-25T23:04:06.689Z,16.74
2024-04-25T23:06:34.424Z,16.75
2024-04-25T23:09:01.868Z,16.74
2024-04-25T23:11:29.035Z,16.72
2024-04-25T23:14:00.453Z,16.72
2024-04-25T23:16:29.914Z,16.70
2024-04-25T23:19:00.319Z,16.65
2024-04-25T23:21:28.925Z,16.61
2024-04-25T23:23:55.835Z,16.59
2024-04-25T23:26:22.817Z,16.59
2024-04-25T23:28:49.627Z,16.59
2024-04-25T23:31:19.910Z,16.60
2024-04-25T23:33:47.157Z,16.61
2024-04-25T23:36:16.087Z,16.61
2024-04-25T23:38:44.168Z,16.62
2024-04-25T23:41:13.678Z,16.63
2024-04-25T23:43:41.565Z,16.63
2024-04-25T23:46:08.489Z,16.63
2024-04-25T23:48:36.012Z,16.64
2024-04-25T23:51:04.683Z,16.64
2024-04-25T23:53:31.710Z,16.63
2024-04-25T23:55:58.615Z,16.63
2024-04-25T23:58:26.244Z,16.62
